Latest Weather Observations for Warburton

IDD60801

Issued at 3:01 pm CST Sunday 21 December 2014 (issued every 30 minutes, with the page automatically refreshed every 10 minutes)

About weather observations | Map of weather stations | Latest weather observations for NT | Other Formats
Station Details ID: 013011 Name: WARBURTON AIRFIELD Lat: -26.13 Lon: 126.58 Height: 459.0 m
Data from the previous 72 hours. | See also: Recent months at Warburton
Date/Time
CST
Temp
°C
App
Temp
°C
Dew
Point
Rel
Hum
%
Delta-T
°C
Wind Press
QNH
hPa
Press
MSL
hPa
Rain
since 9 am
mm
Dir
 
Spd
km/h
Gust
km/h
Spd
kts
Gust
kts
21/03:00pm 33.3 31.9 16.6 36 10.8 NW 19 28 10 15 1009.0 - 0.0
21/02:30pm 32.9 31.6 16.7 38 10.5 NNW 19 26 10 14 1009.3 - 0.0
21/02:00pm 32.3 32.4 17.4 41 9.7 N 13 20 7 11 1009.5 - 0.0
21/01:30pm 32.1 31.0 16.4 39 10.1 NW 17 26 9 14 1009.8 1006.5 0.0
21/01:00pm 31.3 31.8 18.3 46 8.5 NNW 13 20 7 11 1010.2 - 0.0
21/12:30pm 30.6 30.4 17.7 46 8.4 NW 15 19 8 10 1010.6 - 0.0
21/12:00pm 30.4 30.0 18.8 50 7.6 NW 19 24 10 13 1011.1 - 0.0
21/11:30am 30.4 30.2 19.7 52 7.1 NW 20 28 11 15 1011.5 - 0.0
21/11:00am 29.5 29.3 19.8 56 6.5 NW 20 26 11 14 1011.8 - 0.0
21/10:30am 28.2 28.5 19.7 60 5.6 NNW 17 24 9 13 1012.0 1008.7 14.0
21/10:00am 27.1 26.6 19.2 62 5.2 NNW 20 26 11 14 1011.9 - 14.0
21/09:30am 25.8 26.4 19.4 67 4.2 N 15 20 8 11 1011.8 - 14.0
21/09:00am 24.9 25.8 19.3 71 3.7 NNW 13 19 7 10 1012.0 - 14.0
21/08:30am 24.7 25.9 19.8 74 3.2 N 13 19 7 10 1011.9 - 14.0
21/08:00am 23.7 26.9 20.4 82 2.2 NW 4 13 2 7 1012.0 - 14.0
21/07:30am 23.0 26.4 20.1 84 1.9 WNW 2 9 1 5 1011.9 1008.6 14.0
21/07:00am 22.3 24.8 20.2 88 1.4 W 7 15 4 8 1011.7 - 14.0
21/06:30am 21.7 23.0 20.2 91 1.0 NW 13 19 7 10 1010.9 - 14.0
21/06:00am 21.6 22.7 20.4 93 0.8 WNW 15 19 8 10 1010.9 - 14.0
21/05:30am 22.5 24.3 19.5 83 2.0 WNW 9 20 5 11 1010.4 - 14.0
21/05:00am 22.4 25.5 19.6 84 1.8 NE 2 11 1 6 1009.5 - 14.0
21/04:30am 22.1 24.3 19.5 85 1.7 ENE 7 13 4 7 1010.5 1007.1 14.0
21/04:00am 21.3 21.9 21.0 98 0.2 NE 19 28 10 15 1010.2 - 14.0
21/03:42am 20.6 19.3 20.6 100 0.0 NE 28 39 15 21 1009.7 - 14.0
21/03:30am 20.6 22.1 20.6 100 0.0 ENE 13 19 7 10 1011.7 - 13.8
21/03:00am 20.5 22.7 20.5 100 0.0 NNW 9 13 5 7 1013.2 - 13.4
21/02:30am 20.3 20.5 20.1 99 0.1 W 19 24 10 13 1013.8 - 11.2
21/02:00am 20.3 18.7 20.1 99 0.1 W 28 39 15 21 1013.8 - 7.8
21/01:30am 19.8 17.6 19.5 98 0.2 WSW 30 44 16 24 1013.5 1010.2 5.0
21/01:00am 21.0 19.3 20.5 97 0.3 SW 30 46 16 25 1013.5 - 0.2
21/12:30am 22.7 16.8 18.9 79 2.4 SW 48 67 26 36 1013.5 - 0.0
21/12:18am 23.7 16.8 18.4 72 3.4 WSW 52 80 28 43 1013.0 - 0.0
21/12:12am 26.5 24.0 18.9 63 5.0 W 30 70 16 38 1012.3 - 0.0
21/12:00am 28.2 30.6 20.0 61 5.5 N 7 11 4 6 1010.6 - 0.0
 
Date/Time
CST
Temp
°C
App
Temp
°C
Dew
Point
Rel
Hum
%
Delta-T
°C
Wind Press
QNH
hPa
Press
MSL
hPa
Rain
since 9 am
mm
Dir
 
Spd
km/h
Gust
km/h
Spd
kts
Gust
kts
20/11:30pm 28.4 30.5 19.3 57 6.0 N 7 9 4 5 1010.4 - 0.0
20/11:00pm 29.2 30.3 18.9 53 6.8 N 11 15 6 8 1010.1 - 0.0
20/10:30pm 29.4 29.7 18.8 53 7.0 N 15 22 8 12 1009.4 1006.1 0.0
20/10:00pm 29.8 29.8 18.9 52 7.2 N 17 20 9 11 1009.2 - 0.0
20/09:30pm 30.1 31.0 19.2 52 7.2 N 13 19 7 10 1009.2 - 0.0
20/09:00pm 30.5 30.5 18.9 50 7.7 N 17 20 9 11 1008.7 - 0.0
20/08:30pm 30.9 30.6 18.3 47 8.3 N 17 24 9 13 1008.4 - 0.0
20/08:00pm 31.2 30.9 18.2 46 8.5 N 17 24 9 13 1008.2 - 0.0
20/07:30pm 31.8 31.2 18.4 45 8.8 N 19 26 10 14 1008.2 1004.8 0.0
20/07:00pm 32.3 32.1 18.5 44 9.1 N 17 26 9 14 1008.4 - 0.0
20/06:30pm 32.6 32.0 18.8 44 9.1 N 20 30 11 16 1008.5 - 0.0
20/06:00pm 33.3 32.8 17.9 40 10.1 NNW 17 24 9 13 1008.8 - 0.0
20/05:30pm 32.5 32.2 18.3 43 9.3 N 17 28 9 15 1009.1 - 0.0
20/05:00pm 32.4 30.9 18.6 44 9.1 N 24 32 13 17 1009.4 - 0.0
20/04:30pm 33.4 32.0 18.7 41 9.8 NNW 24 30 13 16 1010.1 1006.7 0.0
20/04:00pm 33.5 32.9 17.6 38 10.4 N 17 26 9 14 1010.3 - 0.0
20/03:30pm 34.2 32.6 17.4 36 11.0 N 22 32 12 17 1010.5 - 0.0
20/03:00pm 33.3 31.5 17.0 37 10.6 N 22 35 12 19 1010.8 - 0.0
20/02:30pm 33.3 32.3 16.6 36 10.8 N 17 28 9 15 1011.4 - 0.0
20/02:00pm 32.0 31.4 16.7 40 9.8 NNW 15 22 8 12 1012.1 - 0.0
20/01:30pm 31.4 30.7 17.3 43 9.1 NW 17 24 9 13 1012.7 1009.3 0.0
20/01:00pm 30.4 30.4 18.2 48 8.0 NNW 15 22 8 12 1013.0 - 0.0
20/12:30pm 30.0 29.4 18.4 49 7.6 NW 19 26 10 14 1013.3 - 0.0
20/12:00pm 29.1 30.2 20.5 59 5.8 N 15 24 8 13 1013.5 - 0.0
20/11:30am 28.1 28.8 19.6 60 5.6 N 15 20 8 11 1014.0 - 0.0
20/11:00am 27.9 27.9 20.2 63 5.1 NNE 20 28 11 15 1014.6 - 0.0
20/10:30am 27.6 28.7 19.7 62 5.2 NNE 13 19 7 10 1014.6 1011.2 6.0
20/10:00am 26.3 27.9 19.9 68 4.2 NE 11 17 6 9 1014.7 - 6.0
20/09:30am 25.5 27.4 20.5 74 3.3 NNE 11 17 6 9 1014.7 - 6.0
20/09:00am 24.8 26.5 20.1 75 3.1 N 11 15 6 8 1014.7 - 6.0
20/08:30am 24.2 26.4 20.5 80 2.5 NW 9 11 5 6 1014.3 - 6.0
20/08:00am 22.8 26.7 22.5 98 0.2 N 6 7 3 4 1014.6 - 6.0
20/07:30am 22.1 25.4 21.9 99 0.1 NNE 7 9 4 5 1014.6 1011.2 6.0
20/07:00am 22.0 24.9 21.8 99 0.1 N 9 11 5 6 1014.8 - 6.0
20/06:30am 21.6 24.0 21.6 100 0.0 NE 11 15 6 8 1015.4 - 6.0
20/06:00am 21.7 24.1 21.5 99 0.1 NNE 11 15 6 8 1016.4 - 5.6
20/05:30am 21.8 24.6 21.5 98 0.2 NNW 9 13 5 7 1016.1 - 5.2
20/05:00am 21.7 23.6 21.4 98 0.2 WSW 13 20 7 11 1015.5 - 4.8
20/04:30am 21.7 21.9 21.4 98 0.2 SW 22 32 12 17 1014.9 1011.5 3.8
20/04:00am 21.6 21.4 21.3 98 0.2 SW 24 35 13 19 1014.9 - 3.8
20/03:30am 21.7 20.5 21.5 99 0.1 WSW 30 41 16 22 1015.2 - 3.8
20/03:00am 21.8 19.7 21.6 99 0.1 WSW 35 46 19 25 1016.1 - 3.4
20/02:34am 22.3 21.8 22.1 99 0.1 W 28 46 15 25 1016.5 - 2.8
20/02:30am 22.3 21.4 22.1 99 0.1 W 30 44 16 24 1016.5 - 2.8
20/02:00am 24.0 17.6 20.3 80 2.4 W 54 82 29 44 1016.2 - 0.0
20/01:54am 24.4 16.2 20.1 77 2.8 W 63 82 34 44 1015.2 - 0.0
20/01:52am 24.5 15.8 19.8 75 3.1 W 65 82 35 44 1014.8 - 0.0
20/01:51am 24.7 20.9 19.8 74 3.2 W 39 78 21 42 1014.9 - 0.0
20/01:39am 29.1 25.9 18.2 51 7.1 W 32 50 17 27 1014.3 - 0.0
20/01:30am 31.3 29.1 12.2 31 11.5 E 15 20 8 11 1013.0 1009.6 0.0
20/01:00am 31.4 29.0 12.7 32 11.3 E 17 24 9 13 1013.4 - 0.0
20/12:30am 31.1 29.5 13.8 34 10.6 ESE 15 20 8 11 1013.7 - 0.0
20/12:00am 31.0 30.8 16.6 42 9.2 ESE 13 20 7 11 1014.0 - 0.0
 
Date/Time
CST
Temp
°C
App
Temp
°C
Dew
Point
Rel
Hum
%
Delta-T
°C
Wind Press
QNH
hPa
Press
MSL
hPa
Rain
since 9 am
mm
Dir
 
Spd
km/h
Gust
km/h
Spd
kts
Gust
kts
19/11:30pm 29.7 32.7 18.5 51 7.3 CALM 0 0 0 0 1013.9 - 0.0
19/11:00pm 29.7 33.1 19.4 54 6.8 CALM 0 0 0 0 1013.5 - 0.0
19/10:30pm 30.1 33.3 18.8 50 7.4 CALM 0 0 0 0 1013.2 1009.8 0.0
19/10:00pm 30.6 33.5 18.3 47 8.1 CALM 0 0 0 0 1012.9 - 0.0
19/09:30pm 31.7 34.6 18.3 45 8.8 CALM 0 0 0 0 1012.9 - 0.0
19/09:00pm 31.9 32.8 16.6 39 9.8 E 7 9 4 5 1012.1 - 0.0
19/08:30pm 32.5 33.7 16.8 39 10.1 E 6 7 3 4 1011.6 - 0.0
19/08:00pm 33.5 34.1 15.9 34 11.2 ESE 7 9 4 5 1011.5 - 0.0
19/07:30pm 34.6 34.5 16.0 33 11.9 SE 11 17 6 9 1011.3 1008.0 0.0
19/07:00pm 35.1 34.8 16.4 32 12.1 SSE 13 17 7 9 1011.2 - 0.0
19/06:30pm 35.3 36.2 16.6 33 12.1 SSE 7 13 4 7 1011.3 - 0.0
19/06:00pm 34.9 35.1 16.7 34 11.8 SSE 11 17 6 9 1011.7 - 0.0
19/05:30pm 34.5 35.3 16.4 34 11.7 SE 7 11 4 6 1012.0 - 0.0
19/05:00pm 34.7 34.8 16.5 33 11.8 S 11 15 6 8 1012.8 - 0.0
19/04:30pm 35.2 36.8 17.0 34 11.9 WSW 4 15 2 8 1013.3 1010.0 0.0
19/04:00pm 34.4 35.3 16.7 34 11.5 NE 7 15 4 8 1013.6 - 0.0
19/03:30pm 31.7 33.4 19.3 47 8.3 SSW 9 13 5 7 1014.3 - 0.0
19/03:00pm 28.4 27.6 20.1 60 5.5 SSW 24 35 13 19 1014.7 - 0.0
19/02:40pm 29.1 27.0 19.7 57 6.2 SSW 30 41 16 22 1014.8 - 0.0
19/02:30pm 34.6 34.5 16.9 35 11.5 N 13 22 7 12 1014.3 - 0.0
19/02:00pm 35.6 34.3 16.8 32 12.2 NNW 19 26 10 14 1014.7 - 0.0
19/01:30pm 35.7 34.6 16.4 31 12.5 NNE 17 37 9 20 1015.1 1011.7 0.0
19/01:00pm 34.9 34.9 17.2 35 11.6 N 13 20 7 11 1015.5 - 0.0
19/12:30pm 34.9 33.6 17.2 35 11.6 N 20 32 11 17 1015.9 - 0.0
19/12:00pm 34.4 34.0 17.2 36 11.2 NE 15 32 8 17 1016.1 - 0.0
19/11:30am 34.2 32.2 15.6 32 11.9 ENE 20 37 11 20 1016.3 - 0.0
19/11:00am 32.6 30.3 14.7 34 11.2 ENE 20 32 11 17 1016.5 - 0.0
19/10:30am 32.4 29.5 14.1 33 11.3 ENE 22 35 12 19 1016.7 1013.4 0.0
19/10:00am 31.3 28.1 13.1 33 11.1 E 22 35 12 19 1016.9 - 0.0
19/09:30am 29.7 25.6 12.6 35 10.3 E 26 37 14 20 1016.7 - 0.0
19/09:00am 29.2 24.7 12.6 36 9.9 E 28 35 15 19 1017.0 - 0.0
19/08:30am 27.9 23.7 12.3 38 9.2 E 26 37 14 20 1017.1 - 0.0
19/08:00am 26.9 22.7 12.5 40 8.5 E 26 35 14 19 1016.6 - 0.0
19/07:30am 26.2 22.5 12.6 43 8.0 E 24 35 13 19 1016.3 1013.0 0.0
19/07:00am 25.3 21.7 13.2 47 7.2 E 24 33 13 18 1015.8 - 0.0
19/06:30am 24.7 21.3 13.6 50 6.6 ESE 24 33 13 18 1015.3 - 0.0
19/06:00am 24.7 20.6 13.9 51 6.5 ESE 28 43 15 23 1014.8 - 0.0
19/05:30am 25.3 21.3 14.1 50 6.8 ESE 28 37 15 20 1014.3 - 0.0
19/05:00am 25.5 24.0 16.4 57 5.7 ESE 19 24 10 13 1014.4 - 0.0
19/04:30am 25.9 25.2 16.5 56 5.9 ESE 15 20 8 11 1014.3 1011.0 0.0
19/04:00am 26.2 26.0 16.7 56 6.0 ESE 13 17 7 9 1014.4 - 0.0
19/03:30am 26.0 26.6 16.8 57 5.8 E 9 11 5 6 1014.6 - 0.0
19/03:00am 26.5 27.8 17.0 56 6.0 ENE 6 11 3 6 1014.6 - 0.0
19/02:30am 26.4 29.3 20.7 71 3.8 NW 6 11 3 6 1014.3 - 0.0
19/02:00am 26.6 27.9 17.1 56 6.0 ESE 6 11 3 6 1014.2 - 0.0
19/01:30am 26.6 29.9 20.0 67 4.4 SE 2 6 1 3 1014.3 1011.0 0.0
19/01:00am 26.8 31.0 20.9 70 4.0 CALM 0 0 0 0 1014.6 - 0.0
19/12:30am 27.2 30.3 20.3 66 4.6 NNE 4 7 2 4 1014.7 - 0.0
19/12:00am 27.7 30.1 20.0 63 5.1 N 7 11 4 6 1014.7 - 0.0
 
Date/Time
CST
Temp
°C
App
Temp
°C
Dew
Point
Rel
Hum
%
Delta-T
°C
Wind Press
QNH
hPa
Press
MSL
hPa
Rain
since 9 am
mm
Dir
 
Spd
km/h
Gust
km/h
Spd
kts
Gust
kts
18/11:30pm 28.3 29.3 18.7 56 6.3 ENE 11 17 6 9 1014.3 - 0.0
18/11:00pm 29.5 28.0 16.3 45 8.4 E 19 24 10 13 1014.3 - 0.0
18/10:30pm 29.9 27.7 16.0 43 8.8 E 22 32 12 17 1014.8 1011.4 0.0
18/10:00pm 30.3 27.9 16.3 42 8.9 ESE 24 35 13 19 1014.1 - 0.0
18/09:30pm 30.6 28.8 17.0 44 8.7 ESE 22 32 12 17 1014.2 - 0.0
18/09:00pm 30.8 28.2 16.8 43 9.0 ESE 26 35 14 19 1013.6 - 0.0
18/08:30pm 31.2 29.7 16.8 42 9.2 ESE 20 30 11 16 1013.1 - 0.0
18/08:00pm 31.4 28.8 17.7 44 8.9 SE 28 39 15 21 1012.5 - 0.0
18/07:30pm 31.9 29.9 17.4 42 9.4 SE 24 33 13 18 1012.4 1009.0 0.0
18/07:00pm 32.6 30.5 18.0 41 9.6 SE 26 35 14 19 1011.8 - 0.0
18/06:30pm 32.8 30.8 18.2 42 9.6 SE 26 35 14 19 1011.3 - 0.0
18/06:00pm 33.8 32.4 18.7 40 10.0 ESE 24 39 13 21 1011.3 - 0.0
18/05:30pm 33.3 32.4 19.0 42 9.5 ESE 22 32 12 17 1011.4 - 0.0
18/05:00pm 33.8 33.8 19.8 43 9.4 ESE 19 33 10 18 1011.6 - 0.0

Other Formats:

Comma delimited format used in spreadsheet applications
http://www.bom.gov.au/fwo/IDD60801/IDD60801.94457.axf

JavaScript Object Notation format (JSON) in row-major order
http://www.bom.gov.au/fwo/IDD60801/IDD60801.94457.json